^^
Station Historical Data
Daily Summary for June 9, 2017 Units:  Metric    English   Both
« Previous Day
Next Day »
Daily Weekly Monthly Yearly Custom
  High: Low: Average:
Temperature: 23.5 °C 5.9 °C 14 °C
Dew Point: -1.4 °C -3.3 °C -2.3 °C
Humidity: 56% 18% 36%
Wind Speed: 35.2km/h 0km/h 10.1km/h
Wind Gust: 46.7km/h - -
Wind- - East
Pressure: 1022.6 hPa 1013.1 hPa -
Precipitation: 0 mm    
Historical Graphs
 
 
Tabular Data for June 9, 2017
Time Temperature Dew Point Pressure Wind Wind Speed Wind Gust Humidity Rainfall Rate (Hourly) solar Conditions
01:18 8.1 °C -2.3 °C 1022.2 hPa ESE 6.4 km/h 8 km/h 48% 0 mm 0.0 W/m2
01:23 8.2 °C -2.4 °C 1022.2 hPa ESE 7.9 km/h 9.7 km/h 47% 0 mm 0.0 W/m2
01:28 7.8 °C -2.5 °C 1022.2 hPa ESE 6.4 km/h 9.7 km/h 48% 0 mm 0.0 W/m2
01:33 7.8 °C -2.3 °C 1022.6 hPa ESE 6.4 km/h 9.7 km/h 49% 0 mm 0.0 W/m2
01:43 8.4 °C -2.3 °C 1022.2 hPa ESE 4.7 km/h 9.7 km/h 47% 0 mm 0.0 W/m2
01:48 8.9 °C -2.1 °C 1022.2 hPa Calm   6.4 km/h 46% 0 mm 0.0 W/m2
01:53 8.6 °C -2.7 °C 1022.2 hPa ESE 4.7 km/h 6.4 km/h 45% 0 mm 0.0 W/m2
01:58 8.1 °C -2.5 °C 1022.6 hPa Calm     47% 0 mm 0.0 W/m2
02:04 7.8 °C -2.5 °C 1022.6 hPa Calm     48% 0 mm 0.0 W/m2
02:09 7.4 °C -2.6 °C 1022.2 hPa Calm   4.8 km/h 49% 0 mm 0.0 W/m2
02:15 7.3 °C -2.7 °C 1022.2 hPa Calm     49% 0 mm 0.0 W/m2
02:20 7.2 °C -2.5 °C 1022.6 hPa Calm     50% 0 mm 0.0 W/m2
02:25 7.4 °C -2.1 °C 1022.2 hPa ESE 7.9 km/h 11.3 km/h 51% 0 mm 0.0 W/m2
02:30 8.6 °C -1.8 °C 1022.2 hPa ESE 3.2 km/h 8 km/h 48% 0 mm 0.0 W/m2
02:35 9.3 °C -2 °C 1021.9 hPa ESE 11.1 km/h 12.9 km/h 45% 0 mm 0.0 W/m2
02:45 9.7 °C -2 °C 1021.6 hPa East 6.4 km/h 11.3 km/h 44% 0 mm 0.0 W/m2
02:55 9.4 °C -1.9 °C 1021.6 hPa Calm   8 km/h 45% 0 mm 0.0 W/m2
03:00 9.2 °C -2.1 °C 1021.6 hPa East 4.7 km/h 8 km/h 45% 0 mm 0.0 W/m2
03:15 8.9 °C -2.1 °C 1021.6 hPa East 7.9 km/h 9.7 km/h 46% 0 mm 0.0 W/m2
03:30 8.7 °C -2 °C 1021.2 hPa East 4.7 km/h 11.3 km/h 47% 0 mm 0.0 W/m2
03:40 8.7 °C -2 °C 1021.2 hPa Calm   4.8 km/h 47% 0 mm 0.0 W/m2
03:45 8.6 °C -2.1 °C 1021.2 hPa East 3.2 km/h 11.3 km/h 47% 0 mm 0.0 W/m2
03:50 8.7 °C -2 °C 1021.2 hPa East 7.9 km/h 14.5 km/h 47% 0 mm 0.0 W/m2
03:55 8.8 °C -1.9 °C 1021.2 hPa East 11.1 km/h 12.9 km/h 47% 0 mm 0.0 W/m2
04:00 8.8 °C -1.9 °C 1020.9 hPa Calm   14.5 km/h 47% 0 mm 0.0 W/m2
04:05 8.7 °C -2 °C 1020.9 hPa East 9.7 km/h 16.1 km/h 47% 0 mm 0.0 W/m2
04:15 8.9 °C -1.8 °C 1020.5 hPa East 16.3 km/h 16.3 km/h 47% 0 mm 0.0 W/m2
04:20 8.9 °C -2.1 °C 1020.9 hPa East 7.9 km/h 14.5 km/h 46% 0 mm 0.0 W/m2
04:30 8.8 °C -1.9 °C 1020.5 hPa East 7.9 km/h 16.1 km/h 47% 0 mm 0.0 W/m2
04:35 8.6 °C -2.1 °C 1020.9 hPa East 3.2 km/h 14.5 km/h 47% 0 mm 0.0 W/m2
04:45 8.3 °C -2.1 °C 1020.9 hPa East 11.1 km/h 11.3 km/h 48% 0 mm 0.0 W/m2
04:51 8.2 °C -2.2 °C 1020.5 hPa East 3.2 km/h 14.5 km/h 48% 0 mm 0.0 W/m2
04:56 8.1 °C -2 °C 1020.5 hPa East 7.9 km/h 14.5 km/h 49% 0 mm 0.0 W/m2
05:01 7.9 °C -2.2 °C 1020.9 hPa East 13 km/h 13 km/h 49% 0 mm 0.0 W/m2
05:06 7.7 °C -2.1 °C 1020.9 hPa East 7.9 km/h 12.9 km/h 50% 0 mm 0.0 W/m2
05:11 7.7 °C -2.1 °C 1020.9 hPa East 11.1 km/h 14.5 km/h 50% 0 mm 0.0 W/m2
05:16 7.6 °C -2.2 °C 1020.9 hPa East 6.4 km/h 14.5 km/h 50% 0 mm 0.0 W/m2
05:21 7.5 °C -2 °C 1020.9 hPa East 6.4 km/h 11.3 km/h 51% 0 mm 0.0 W/m2
05:26 7.4 °C -2.1 °C 1020.9 hPa East 7.9 km/h 11.3 km/h 51% 0 mm 0.0 W/m2
05:31 7.3 °C -2.2 °C 1020.9 hPa East 9.7 km/h 12.9 km/h 51% 0 mm 0.0 W/m2
05:41 6.5 °C -2.4 °C 1021.2 hPa East 13 km/h 13 km/h 53% 0 mm 0.0 W/m2
05:46 6.2 °C -2.4 °C 1021.2 hPa East 6.4 km/h 14.5 km/h 54% 0 mm 0.0 W/m2
06:00 6.1 °C -2.3 °C 1021.2 hPa East 6.4 km/h 12.9 km/h 55% 0 mm 0.0 W/m2
06:11 5.9 °C -2.2 °C 1021.2 hPa East 14.3 km/h 14.5 km/h 56% 0 mm 0.0 W/m2
06:16 5.9 °C -2.2 °C 1021.2 hPa East 9.7 km/h 12.9 km/h 56% 0 mm 0.0 W/m2
06:21 6.1 °C -2.3 °C 1021.2 hPa East 4.7 km/h 19.3 km/h 55% 0 mm 0.0 W/m2
06:26 6.4 °C -2 °C 1021.2 hPa East 11.1 km/h 16.1 km/h 55% 0 mm 0.0 W/m2
06:36 6.9 °C -2 °C 1021.2 hPa ENE 7.9 km/h 20.9 km/h 53% 0 mm 5.0 W/m2
06:41 6.9 °C -2 °C 1021.2 hPa ENE 7.9 km/h 17.7 km/h 53% 0 mm 7.0 W/m2
06:47 6.8 °C -2.1 °C 1021.2 hPa ENE 7.9 km/h 16.1 km/h 53% 0 mm 9.0 W/m2
06:56 6.8 °C -2.1 °C 1021.6 hPa ENE 9.7 km/h 11.3 km/h 53% 0 mm 14.0 W/m2
07:06 6.8 °C -2.1 °C 1021.6 hPa ENE 13 km/h 14.5 km/h 53% 0 mm 18.0 W/m2
07:12 6.9 °C -2 °C 1021.6 hPa ENE 6.4 km/h 14.5 km/h 53% 0 mm 19.0 W/m2
07:16 7 °C -1.9 °C 1021.6 hPa ENE 4.7 km/h 16.1 km/h 53% 0 mm 25.0 W/m2
07:21 7.1 °C -2.1 °C 1021.6 hPa ENE 9.7 km/h 12.9 km/h 52% 0 mm 69.0 W/m2
07:31 7.4 °C -2.1 °C 1021.6 hPa ENE 11.1 km/h 20.9 km/h 51% 0 mm 109.0 W/m2
07:53 8 °C -1.8 °C 1021.9 hPa ENE 11.1 km/h 14.5 km/h 50% 0 mm 162.0 W/m2
08:08 8.4 °C -2 °C 1022.2 hPa NE 14.3 km/h 19.3 km/h 48% 0 mm 216.0 W/m2
08:22 9.1 °C -1.9 °C 1022.2 hPa NE 16.3 km/h 17.7 km/h 46% 0 mm 260.0 W/m2
08:31 9.9 °C -1.8 °C 1022.6 hPa NE 9.7 km/h 12.9 km/h 44% 0 mm 302.0 W/m2
08:41 10.7 °C -1.7 °C 1022.2 hPa NE 13 km/h 20.9 km/h 42% 0 mm 329.0 W/m2
08:54 11.4 °C -1.7 °C 1022.2 hPa NE 14.3 km/h 25.7 km/h 40% 0 mm 357.0 W/m2
09:37 13.8 °C -1.4 °C 1021.9 hPa NNE 16.3 km/h 22.5 km/h 35% 0 mm 457.0 W/m2
09:53 14.8 °C -1.7 °C 1021.9 hPa NNE 19.5 km/h 22.5 km/h 32% 0 mm 485.0 W/m2
09:58 15.5 °C -1.6 °C 1021.9 hPa NNE 20.9 km/h 37 km/h 31% 0 mm 475.0 W/m2
10:07 15.9 °C -1.7 °C 1021.6 hPa North 32 km/h 40.2 km/h 30% 0 mm 510.0 W/m2
10:12 16.5 °C -1.6 °C 1021.2 hPa North 24.1 km/h 43.5 km/h 29% 0 mm 515.0 W/m2
10:17 16.7 °C -1.9 °C 1021.2 hPa North 22.7 km/h 35.4 km/h 28% 0 mm 524.0 W/m2
10:22 17 °C -1.6 °C 1021.2 hPa North 17.7 km/h 38.6 km/h 28% 0 mm 531.0 W/m2
10:27 17.1 °C -2.1 °C 1020.9 hPa North 19.5 km/h 43.5 km/h 27% 0 mm 536.0 W/m2
10:32 17 °C -2.1 °C 1020.9 hPa NNW 27.4 km/h 37 km/h 27% 0 mm 540.0 W/m2
10:34 17 °C -2.1 °C 1020.9 hPa NNW 27.4 km/h 37 km/h 27% 0 mm 540.0 W/m2
10:37 17.1 °C -2.1 °C 1020.5 hPa North 35.2 km/h 37 km/h 27% 0 mm 550.0 W/m2
10:52 17.3 °C -2.4 °C 1020.5 hPa NNE 32 km/h 45.1 km/h 26% 0 mm 559.0 W/m2
11:02 17.5 °C -2.2 °C 1020.2 hPa North 28.8 km/h 40.2 km/h 26% 0 mm 571.0 W/m2
11:21 17.9 °C -2.4 °C 1019.5 hPa North 30.6 km/h 38.6 km/h 25% 0 mm 578.0 W/m2
11:30 17.9 °C -2.4 °C 1019.5 hPa North 35.2 km/h 46.7 km/h 25% 0 mm 585.0 W/m2
12:37 19.3 °C -2.4 °C 1017.5 hPa North 14.3 km/h 40.2 km/h 23% 0 mm 308.0 W/m2
12:52 20.2 °C -2.2 °C 1017.2 hPa NNW 22.7 km/h 32.2 km/h 22% 0 mm 424.0 W/m2
13:08 20.6 °C -1.9 °C 1016.8 hPa NNE 28.8 km/h 38.6 km/h 22% 0 mm 578.0 W/m2
13:31 20.9 °C -2.3 °C 1016.8 hPa NNE 24.1 km/h 33.8 km/h 21% 0 mm 478.0 W/m2
13:43 21.3 °C -2.6 °C 1016.1 hPa North 17.7 km/h 29 km/h 20% 0 mm 461.0 W/m2
14:07 22.2 °C -1.8 °C 1015.5 hPa North 14.3 km/h 33.8 km/h 20% 0 mm 469.0 W/m2
14:15 22.3 °C -2.4 °C 1015.1 hPa North 11.1 km/h 32.2 km/h 19% 0 mm 367.0 W/m2
14:18 22.4 °C -2.4 °C 1015.1 hPa NNE 19.5 km/h 22.5 km/h 19% 0 mm 227.0 W/m2
14:33 22.8 °C -2 °C 1015.5 hPa NNW 6.4 km/h 22.5 km/h 19% 0 mm 165.0 W/m2
14:43 22.8 °C -2.8 °C 1015.1 hPa NNW 11.1 km/h 24.1 km/h 18% 0 mm 206.0 W/m2
14:58 23 °C -2.6 °C 1014.8 hPa North 17.7 km/h 29 km/h 18% 0 mm 160.0 W/m2
15:13 23.2 °C -2.4 °C 1014.4 hPa North 16.3 km/h 33.8 km/h 18% 0 mm 149.0 W/m2
15:28 23.4 °C -2.3 °C 1014.4 hPa North 13 km/h 24.1 km/h 18% 0 mm 109.0 W/m2
15:49 23.4 °C -2.3 °C 1014.1 hPa North 14.3 km/h 24.1 km/h 18% 0 mm 86.0 W/m2
16:04 23.5 °C -2.2 °C 1014.4 hPa North 13 km/h 24.1 km/h 18% 0 mm 70.0 W/m2
16:18 23.5 °C -2.2 °C 1014.1 hPa North 9.7 km/h 20.9 km/h 18% 0 mm 54.0 W/m2
16:29 23.4 °C -2.3 °C 1014.1 hPa North 11.1 km/h 29 km/h 18% 0 mm 30.0 W/m2
16:34 23.3 °C -2.4 °C 1014.1 hPa NNE 13 km/h 24.1 km/h 18% 0 mm 23.0 W/m2
16:46 23.2 °C -2.4 °C 1014.4 hPa North 11.1 km/h 17.7 km/h 18% 0 mm 12.0 W/m2
16:54 23 °C -2.6 °C 1014.4 hPa Calm   8 km/h 18% 0 mm 11.0 W/m2
20:12 18.2 °C -2.7 °C 1014.4 hPa Calm     24% 0 mm 0.0 W/m2
20:43 18.7 °C -2.3 °C 1014.8 hPa North 7.9 km/h 12.9 km/h 24% 0 mm 0.0 W/m2
20:54 20.1 °C -2.3 °C 1014.8 hPa Calm     22% 0 mm 0.0 W/m2
21:03 20.4 °C -2.7 °C 1014.8 hPa Calm   1.6 km/h 21% 0 mm 0.0 W/m2
21:12 20.6 °C -2.5 °C 1014.8 hPa Calm     21% 0 mm 0.0 W/m2
21:22 20.6 °C -2.5 °C 1014.4 hPa Calm   3.2 km/h 21% 0 mm 0.0 W/m2
21:32 20.7 °C -2.4 °C 1014.4 hPa North 7.9 km/h 16.1 km/h 21% 0 mm 0.0 W/m2
21:37 20.7 °C -2.4 °C 1014.4 hPa North 14.3 km/h 17.7 km/h 21% 0 mm 0.0 W/m2
21:42 20.5 °C -2.6 °C 1014.8 hPa North 1.4 km/h 8 km/h 21% 0 mm 0.0 W/m2
21:52 20.4 °C -2.7 °C 1014.4 hPa NNE 9.7 km/h 14.5 km/h 21% 0 mm 0.0 W/m2
21:57 20.4 °C -2.7 °C 1014.4 hPa Calm   6.4 km/h 21% 0 mm 0.0 W/m2
22:02 20.3 °C -2.7 °C 1014.4 hPa Calm   12.9 km/h 21% 0 mm 0.0 W/m2
22:07 20.3 °C -2.7 °C 1014.4 hPa North 1.4 km/h 11.3 km/h 21% 0 mm 0.0 W/m2
22:12 20.2 °C -2.2 °C 1014.4 hPa North 3.2 km/h 11.3 km/h 22% 0 mm 0.0 W/m2
22:17 20.1 °C -2.3 °C 1014.4 hPa North 6.4 km/h 11.3 km/h 22% 0 mm 0.0 W/m2
22:27 19.9 °C -2.5 °C 1014.4 hPa Calm   9.7 km/h 22% 0 mm 0.0 W/m2
22:33 20 °C -2.4 °C 1014.4 hPa Calm   14.5 km/h 22% 0 mm 0.0 W/m2
22:38 20.1 °C -2.3 °C 1014.4 hPa Calm   6.4 km/h 22% 0 mm 0.0 W/m2
22:48 19.9 °C -2.5 °C 1014.4 hPa NNE 7.9 km/h 11.3 km/h 22% 0 mm 0.0 W/m2
22:53 19.7 °C -2.6 °C 1014.4 hPa NNE 3.2 km/h 6.4 km/h 22% 0 mm 0.0 W/m2
22:58 19.4 °C -2.9 °C 1014.4 hPa Calm   8 km/h 22% 0 mm 0.0 W/m2
23:03 19.2 °C -2.4 °C 1014.1 hPa Calm   8 km/h 23% 0 mm 0.0 W/m2
23:08 19.4 °C -2.9 °C 1014.1 hPa NNE 7.9 km/h 12.9 km/h 22% 0 mm 0.0 W/m2
23:23 20.1 °C -2.9 °C 1013.8 hPa NNE 9.7 km/h 14.5 km/h 21% 0 mm 0.0 W/m2
23:38 20.5 °C -3.2 °C 1013.4 hPa NNE 7.9 km/h 14.5 km/h 20% 0 mm 0.0 W/m2
23:48 20.4 °C -3.3 °C 1013.4 hPa NNE 11.1 km/h 17.7 km/h 20% 0 mm 0.0 W/m2
23:54 20.4 °C -3.3 °C 1013.4 hPa NNE 13 km/h 16.1 km/h 20% 0 mm 0.0 W/m2
23:59 20.4 °C -3.3 °C 1013.1 hPa NNE 13 km/h 16.1 km/h 20% 0 mm 0.0 W/m2
Canyon Roadhouse, Fishriver Canyon, Namibia
Compliments of Weather Underground - 2.25 mb